Portada
METAR-TAF:

METAR-TAF

Aeroports :

Bagdad, Iraq

latitud: 33-15-45N, longitud: 44-14-04E, altitud: 35 m

Observació

L'informe es va fer fa 1 hora i 5 minuts, a les 08:00 UTC
Vent 17 kt del Nord
Temperatura 39°C
Humitat 14%
Pressió 1010 hPa
Visibilitat 10 km o més
Escasses núvols a una alçada de 4500 ft

METAR: ORBI 060800Z 01017KT 9999 FEW045 39/07 Q1010

Hora: 12:05 (09:05 UTC)

Pronòstic

L'informe es va fer fa 5 hores i 5 minuts, a les 04:00 UTC
Pronòstic vàlid del 06 a les 06 UTC al 07 a les 06 UTC
Vent 13 kt del Nord-Oest
Visibilitat: 7000 m

TAF: ORBI 060400Z 0606/0706 32013KT 7000 NSC

Observacions i pronòstics meteorològics de més de 4000 aeroports (METAR i TAF).

Les estacions disponibles són els punts grocs i vermells al mapa.

Posi el ratolí al punt desitjat per veure el nom de l'estació.

Feu clic per veure les observacions i els pronòstics meteorològics.

Per canviar el mapa: feu clic els botons verds amb una creu de color negre per apropar; al botó verd amb un guió per allunyar la imatge; o en les fletxes verdes per a mapes adjacents.


METAR-TAF: